SBSG

Governador Aluízio Alves International Airport

Natal, Brazil
TAF SBSG 171000Z 1712/1812 16013KT 9999 SCT025 TX29/1716Z TN22/1808Z BECMG 1721/1723 20007KT RMK PCH
Issued Valid From Valid To
Aug-17 @ 10:00 UTC
(5 hours ago)
Aug-17 @ 12:00 UTC
(3 hours ago)
Aug-18 @ 12:00 UTC
(in 21 hours)
Aug-17 @ 12:00 to Aug-17 @ 21:00
TAF SBSG 171000Z 1712/1812 16013KT 9999 SCT025 TX29/1716Z TN22/1808Z
Wind Visibility Clouds
160° at 13 knots 10,000+ meters
  • Scattered at 2,500' AGL
Becoming Aug-17 @ 21:00 to Aug-18 @ 12:00
BECMG 1721/1723 20007KT RMK PCH
Wind Visibility Clouds
200° at 7 knots 10,000+ meters
  • Scattered at 2,500' AGL
TAF SBSG 171000Z 1712/1812 16013KT 9999 SCT025 TX29/1716Z TN22/1808Z BECMG 1721/1723 20007KT RMK PCH
Issued Aug-17 @ 10:00 UTC
(5 hours ago)
Valid From Aug-17 @ 12:00 UTC
(3 hours ago)
Valid To Aug-18 @ 12:00 UTC
(in 21 hours)
Aug-17 @ 12:00 - Aug-17 @ 21:00
Wind Visibility
160° at 13 knots 10,000+ meters
Clouds
  • Scattered at 2,500' AGL
Becoming Aug-17 @ 21:00 - Aug-18 @ 12:00
Wind Visibility
200° at 7 knots 10,000+ meters
Clouds
  • Scattered at 2,500' AGL